Time;durP1;ratioP1;P1;durP2;ratioP2;P2;SDS_P1;SDS_P2;PMS_P1;PMS_P2;Temp;Humidity;BMP_temperature;BMP_pressure;BME280_temperature;BME280_humidity;BME280_pressure;Samples;Min_cycle;Max_cycle;Signal;HPM_P1;HPM_P2
2022/06/16 00:00:17;;;;;;;6.95;4.13;;;13.70;99.90;;;;;;5036830;28;20095;-66
2022/06/16 00:02:49;;;;;;;8.75;4.88;;;13.80;99.90;;;;;;5023946;28;20430;-67
2022/06/16 00:05:18;;;;;;;5.57;4.00;;;13.80;99.90;;;;;;5036919;28;20521;-67
2022/06/16 00:07:44;;;;;;;9.80;3.97;;;13.70;99.90;;;;;;5036214;28;20049;-67
2022/06/16 00:10:11;;;;;;;6.80;4.32;;;13.70;99.90;;;;;;5037195;28;20124;-67
2022/06/16 00:12:38;;;;;;;10.43;6.13;;;13.70;99.90;;;;;;5054512;28;20037;-67
2022/06/16 00:15:09;;;;;;;7.57;3.85;;;13.60;99.90;;;;;;5036985;28;20080;-65
2022/06/16 00:17:34;;;;;;;6.97;4.13;;;13.40;99.90;;;;;;5036897;28;20033;-67
2022/06/16 00:20:04;;;;;;;7.43;4.38;;;13.70;99.90;;;;;;5053489;28;20083;-67
2022/06/16 00:22:31;;;;;;;8.38;4.50;;;13.50;99.90;;;;;;5046433;28;20564;-67
2022/06/16 00:24:57;;;;;;;9.52;4.82;;;13.60;99.90;;;;;;5036920;28;20043;-67
2022/06/16 00:27:22;;;;;;;5.85;4.60;;;13.50;99.90;;;;;;5054402;28;20037;-67
2022/06/16 00:29:48;;;;;;;6.80;4.95;;;13.50;99.90;;;;;;5036560;28;20071;-67
2022/06/16 00:32:14;;;;;;;7.05;4.65;;;13.70;99.90;;;;;;5054743;28;20518;-67
2022/06/16 00:34:40;;;;;;;6.80;5.03;;;13.60;99.90;;;;;;5019958;28;20480;-68
2022/06/16 00:37:05;;;;;;;8.27;4.63;;;13.50;99.90;;;;;;5054269;28;20036;-67
2022/06/16 00:39:31;;;;;;;5.80;4.10;;;13.20;99.90;;;;;;5020104;28;20108;-67
2022/06/16 00:42:08;;;;;;;7.22;4.85;;;13.30;99.90;;;;;;5036269;28;20045;-67
2022/06/16 00:44:34;;;;;;;5.30;4.10;;;13.20;99.90;;;;;;5020060;28;20055;-67
2022/06/16 00:47:00;;;;;;;8.90;4.63;;;;;;;;;;5036084;28;20036;-67
2022/06/16 00:49:28;;;;;;;7.57;5.10;;;13.10;99.90;;;;;;5036134;28;20045;-67
2022/06/16 00:51:57;;;;;;;8.82;5.88;;;13.20;99.90;;;;;;5036509;28;20040;-67
2022/06/16 00:54:34;;;;;;;6.50;4.95;;;12.90;99.90;;;;;;5054359;28;20036;-67
2022/06/16 00:57:13;;;;;;;10.15;5.18;;;13.10;99.90;;;;;;5023939;28;20098;-67
2022/06/16 00:59:39;;;;;;;7.88;3.83;;;12.90;99.90;;;;;;5036292;28;20128;-67
2022/06/16 01:02:06;;;;;;;8.05;4.10;;;13.00;99.90;;;;;;5035804;28;20079;-65
2022/06/16 01:07:19;;;;;;;6.50;3.88;;;12.90;99.90;;;;;;5053063;28;20501;-65
2022/06/16 01:09:45;;;;;;;8.10;4.32;;;12.60;99.90;;;;;;5003343;28;20129;-65
2022/06/16 01:15:37;;;;;;;6.40;4.03;;;12.80;99.90;;;;;;5052631;28;20140;-65
2022/06/16 01:18:15;;;;;;;7.93;3.87;;;12.90;99.90;;;;;;5035775;28;20053;-64
2022/06/16 01:20:52;;;;;;;11.38;4.45;;;12.80;99.90;;;;;;5035180;28;20303;-65
2022/06/16 01:23:43;;;;;;;7.85;4.13;;;12.90;99.90;;;;;;5035459;28;20052;-64
2022/06/16 01:26:38;;;;;;;7.85;4.22;;;12.90;99.90;;;;;;5032221;28;20068;-64
2022/06/16 01:29:17;;;;;;;8.00;4.75;;;12.80;99.90;;;;;;5018618;28;20442;-65
2022/06/16 01:32:11;;;;;;;6.95;4.38;;;13.00;99.90;;;;;;5035232;28;20406;-65
2022/06/16 01:35:10;;;;;;;6.50;4.60;;;12.90;99.90;;;;;;5040744;28;20040;-65
2022/06/16 01:37:48;;;;;;;8.20;5.05;;;12.70;99.90;;;;;;5034810;28;20052;-65
2022/06/16 01:40:25;;;;;;;9.93;5.15;;;12.70;99.90;;;;;;5053018;28;20083;-65
2022/06/16 01:42:56;;;;;;;9.73;4.68;;;12.50;99.90;;;;;;5052933;28;20112;-65
2022/06/16 01:45:33;;;;;;;5.85;4.68;;;12.60;99.90;;;;;;5052723;28;20058;-65
2022/06/16 01:48:00;;;;;;;6.97;4.45;;;12.50;99.90;;;;;;5052670;28;20041;-65
2022/06/16 01:50:36;;;;;;;10.23;4.28;;;12.40;99.90;;;;;;5034990;28;20123;-65
2022/06/16 01:53:43;;;;;;;11.60;4.78;;;12.50;99.90;;;;;;5034647;28;20060;-65
2022/06/16 01:56:18;;;;;;;6.10;4.40;;;12.50;99.90;;;;;;5052751;28;20052;-65
2022/06/16 01:58:50;;;;;;;5.75;4.70;;;12.60;99.90;;;;;;5034498;28;20041;-65
2022/06/16 02:01:18;;;;;;;5.95;4.88;;;12.60;99.90;;;;;;5034516;28;20037;-65
2022/06/16 02:03:54;;;;;;;7.78;4.88;;;12.50;99.90;;;;;;5034550;28;20041;-65
2022/06/16 02:06:24;;;;;;;7.15;5.05;;;12.70;99.90;;;;;;5017926;28;20084;-65
2022/06/16 02:09:01;;;;;;;6.82;4.55;;;12.60;99.90;;;;;;5034458;28;20043;-65
2022/06/16 02:11:32;;;;;;;10.73;4.95;;;12.50;99.90;;;;;;5052196;28;20084;-65
2022/06/16 02:14:32;;;;;;;6.32;4.88;;;12.50;99.90;;;;;;5018214;28;20506;-65
2022/06/16 02:16:58;;;;;;;8.43;5.30;;;12.40;99.90;;;;;;5020693;28;20059;-65
2022/06/16 02:19:25;;;;;;;8.02;4.63;;;12.40;99.90;;;;;;5034432;28;20068;-64
2022/06/16 02:21:52;;;;;;;6.70;4.82;;;12.20;99.90;;;;;;5016905;28;20438;-64
2022/06/16 02:24:25;;;;;;;9.50;5.20;;;12.30;99.90;;;;;;5034541;28;20127;-65
2022/06/16 02:26:54;;;;;;;8.57;5.40;;;12.30;99.90;;;;;;5017934;28;20033;-65
2022/06/16 02:29:29;;;;;;;7.45;5.10;;;12.30;99.90;;;;;;5034239;28;20064;-64
2022/06/16 02:32:33;;;;;;;7.80;5.32;;;12.30;99.90;;;;;;5034497;28;20045;-65
2022/06/16 02:35:40;;;;;;;10.45;6.00;;;12.40;99.90;;;;;;5034475;28;20490;-66
2022/06/16 02:38:15;;;;;;;8.85;6.03;;;12.30;99.90;;;;;;5034103;28;20072;-65
2022/06/16 02:41:02;;;;;;;10.60;5.55;;;12.30;99.90;;;;;;5051862;28;20499;-64
2022/06/16 02:43:39;;;;;;;11.00;5.32;;;12.30;99.90;;;;;;5052277;28;20077;-65
2022/06/16 02:46:23;;;;;;;8.93;5.40;;;12.30;99.90;;;;;;5051895;28;20167;-65
2022/06/16 02:48:57;;;;;;;8.82;5.60;;;12.40;99.90;;;;;;5023976;28;20037;-65
2022/06/16 02:51:46;;;;;;;7.00;5.32;;;12.20;99.90;;;;;;5056149;28;20052;-65
2022/06/16 02:54:26;;;;;;;7.57;5.20;;;12.20;99.90;;;;;;5038272;28;20120;-65
2022/06/16 02:57:24;;;;;;;9.15;5.75;;;12.30;99.90;;;;;;5056351;28;20048;-64
2022/06/16 02:59:55;;;;;;;8.13;5.05;;;12.20;99.90;;;;;;5054984;28;20462;-65
2022/06/16 03:02:24;;;;;;;6.20;4.45;;;12.40;99.90;;;;;;5038053;28;20488;-65
2022/06/16 03:05:04;;;;;;;10.90;5.70;;;12.60;99.90;;;;;;5055879;28;20041;-65
2022/06/16 03:07:29;;;;;;;6.88;4.88;;;12.20;99.90;;;;;;5055634;28;20114;-64
2022/06/16 03:09:55;;;;;;;8.77;5.30;;;12.30;99.90;;;;;;5021488;28;20033;-64
2022/06/16 03:12:21;;;;;;;10.50;5.35;;;12.30;99.90;;;;;;5037734;28;20086;-64
2022/06/16 03:14:46;;;;;;;6.30;4.85;;;12.10;99.90;;;;;;5037773;28;20044;-64
2022/06/16 03:17:13;;;;;;;9.43;5.13;;;12.20;99.90;;;;;;5037418;28;20048;-65
2022/06/16 03:19:39;;;;;;;8.95;4.47;;;12.10;99.90;;;;;;5055134;28;20483;-64
2022/06/16 03:22:05;;;;;;;9.77;4.70;;;12.00;99.90;;;;;;5055657;28;20167;-67
2022/06/16 03:24:32;;;;;;;5.75;4.07;;;12.00;99.90;;;;;;5037519;28;20115;-66
2022/06/16 03:26:57;;;;;;;7.45;4.57;;;12.00;99.90;;;;;;5020911;28;20029;-67
2022/06/16 03:29:23;;;;;;;10.10;5.32;;;11.90;99.90;;;;;;5037470;28;20048;-67
2022/06/16 03:31:49;;;;;;;7.22;5.03;;;11.70;99.90;;;;;;5055627;28;20060;-67
2022/06/16 03:34:14;;;;;;;5.57;4.90;;;11.60;99.90;;;;;;5055303;28;20394;-67
2022/06/16 03:36:40;;;;;;;4.93;4.03;;;11.80;99.90;;;;;;5037406;28;20095;-67
2022/06/16 03:39:06;;;;;;;5.40;3.47;;;;;;;;;;5055207;28;20052;-67
2022/06/16 03:41:33;;;;;;;6.22;3.90;;;11.60;99.90;;;;;;5037169;28;20029;-67
2022/06/16 03:43:59;;;;;;;7.00;4.20;;;;;;;;;;5020637;28;20044;-67
2022/06/16 03:46:25;;;;;;;8.75;5.03;;;11.60;99.90;;;;;;5033266;28;20044;-67
2022/06/16 03:48:51;;;;;;;8.00;5.22;;;11.70;99.90;;;;;;5037118;28;20487;-67
2022/06/16 03:51:18;;;;;;;7.03;4.70;;;;;;;;;;5018096;28;20487;-66
2022/06/16 03:53:45;;;;;;;7.68;5.15;;;11.80;99.90;;;;;;5027834;28;20086;-65
2022/06/16 03:56:12;;;;;;;7.05;5.30;;;11.40;99.90;;;;;;5036701;28;20123;-66
2022/06/16 03:58:38;;;;;;;6.15;4.75;;;11.80;99.90;;;;;;5054965;28;20029;-67
2022/06/16 04:01:04;;;;;;;6.93;4.82;;;11.50;99.90;;;;;;5020399;28;20450;-67
2022/06/16 04:06:14;;;;;;;6.32;5.10;;;11.60;99.90;;;;;;5036268;28;20057;-67
2022/06/16 04:08:40;;;;;;;6.18;4.90;;;11.50;99.90;;;;;;5048242;28;20043;-67
2022/06/16 04:13:52;;;;;;;10.75;6.28;;;11.80;99.90;;;;;;5052776;28;20495;-67
2022/06/16 04:16:18;;;;;;;11.73;7.65;;;11.70;99.90;;;;;;5052145;28;20137;-66
2022/06/16 04:18:44;;;;;;;12.65;7.28;;;11.90;99.90;;;;;;5050289;28;20453;-67
2022/06/16 04:21:10;;;;;;;10.05;7.32;;;12.10;99.90;;;;;;5050281;28;20083;-66
2022/06/16 04:23:36;;;;;;;10.70;8.20;;;;;;;;;;5050547;28;20124;-65
2022/06/16 04:26:02;;;;;;;9.23;7.47;;;12.10;99.90;;;;;;5050126;28;20036;-67
2022/06/16 04:28:28;;;;;;;15.30;8.43;;;;;;;;;;5032233;28;20064;-66
2022/06/16 04:30:54;;;;;;;10.73;7.40;;;;;;;;;;5031681;28;20422;-67
2022/06/16 04:33:20;;;;;;;10.40;7.72;;;;;;;;;;5032425;28;20110;-66
2022/06/16 04:35:46;;;;;;;15.20;8.90;;;;;;;;;;5031894;28;20518;-66
2022/06/16 04:38:12;;;;;;;11.75;8.38;;;12.40;99.90;;;;;;5032075;28;20051;-67
2022/06/16 04:40:38;;;;;;;17.55;8.60;;;12.40;99.90;;;;;;5031027;28;20053;-66
2022/06/16 04:43:03;;;;;;;10.88;8.02;;;12.30;99.90;;;;;;5048953;28;20124;-66
2022/06/16 04:45:29;;;;;;;10.15;7.72;;;12.40;99.90;;;;;;5048889;28;20033;-66
2022/06/16 04:47:55;;;;;;;13.70;7.95;;;;;;;;;;5046089;28;20036;-65
2022/06/16 04:50:21;;;;;;;9.73;7.72;;;;;;;;;;5018607;28;20129;-66
2022/06/16 04:52:47;;;;;;;15.05;8.43;;;;;;;;;;5023528;28;20052;-66
2022/06/16 04:55:15;;;;;;;12.13;9.02;;;12.50;99.90;;;;;;5026251;28;20128;-66
2022/06/16 04:57:40;;;;;;;11.02;8.68;;;12.60;99.90;;;;;;5043923;28;20107;-67
2022/06/16 05:00:10;;;;;;;14.93;9.60;;;12.70;99.90;;;;;;5044120;28;20128;-66
2022/06/16 05:02:36;;;;;;;12.13;8.57;;;;;;;;;;5043890;28;20037;-66
2022/06/16 05:05:02;;;;;;;12.88;9.02;;;;;;;;;;5022741;28;20044;-67
2022/06/16 05:07:28;;;;;;;15.27;9.98;;;;;;;;;;5043232;28;20049;-65
2022/06/16 05:09:54;;;;;;;12.98;9.55;;;;;;;;;;5025975;28;20470;-67
2022/06/16 05:12:19;;;;;;;14.10;10.85;;;12.90;99.90;;;;;;5027122;28;20140;-67
2022/06/16 05:14:45;;;;;;;18.65;10.85;;;;;;;;;;5044599;28;20136;-65
2022/06/16 05:17:12;;;;;;;13.90;10.32;;;;;;;;;;5027744;28;20111;-67
2022/06/16 05:19:38;;;;;;;12.73;9.93;;;13.00;99.90;;;;;;5042933;28;20051;-65
2022/06/16 05:22:05;;;;;;;14.60;10.38;;;12.80;99.90;;;;;;5009058;28;20042;-66
2022/06/16 05:24:32;;;;;;;13.20;9.70;;;13.10;99.90;;;;;;5017254;28;20048;-66
2022/06/16 05:27:00;;;;;;;15.85;10.27;;;13.00;99.90;;;;;;5027592;28;20510;-67
2022/06/16 05:29:26;;;;;;;13.70;9.82;;;;;;;;;;5026141;28;20037;-66
2022/06/16 05:31:52;;;;;;;13.98;10.93;;;;;;;;;;5031660;28;20037;-65
2022/06/16 05:34:18;;;;;;;14.93;9.85;;;;;;;;;;5028339;28;20048;-67
2022/06/16 05:36:46;;;;;;;12.32;9.18;;;13.80;99.90;;;;;;5044805;28;20041;-67
2022/06/16 05:39:11;;;;;;;14.65;9.68;;;13.90;99.90;;;;;;5044176;28;20041;-67
2022/06/16 05:41:37;;;;;;;15.43;8.60;;;13.90;99.90;;;;;;5044547;28;20484;-67
2022/06/16 05:44:03;;;;;;;15.45;9.90;;;;;;;;;;5026401;28;20475;-69
2022/06/16 05:46:29;;;;;;;9.68;8.65;;;14.10;99.90;;;;;;5013744;28;20481;-67
2022/06/16 05:48:54;;;;;;;14.00;8.20;;;14.10;99.90;;;;;;5038930;28;20053;-69
2022/06/16 05:51:22;;;;;;;11.95;8.02;;;14.30;99.90;;;;;;5028093;28;20056;-69
2022/06/16 05:53:48;;;;;;;13.07;8.55;;;14.60;99.90;;;;;;5049730;28;20040;-69
2022/06/16 05:56:13;;;;;;;10.98;7.28;;;14.90;99.90;;;;;;5050081;28;20037;-70
2022/06/16 05:58:39;;;;;;;11.63;8.00;;;15.20;99.90;;;;;;5052656;28;20036;-68
2022/06/16 06:01:05;;;;;;;14.70;7.18;;;15.60;99.90;;;;;;5052805;28;20506;-70
2022/06/16 06:03:31;;;;;;;11.77;7.25;;;15.90;99.90;;;;;;5035094;28;20037;-69
2022/06/16 06:05:59;;;;;;;13.02;7.35;;;16.40;99.90;;;;;;5034426;28;20053;-70
2022/06/16 06:16:48;;;;;;;11.52;5.90;;;17.00;99.90;;;;;;5034243;28;20052;-70
2022/06/16 06:19:24;;;;;;;8.85;5.85;;;17.10;99.90;;;;;;5051261;28;20392;-70
2022/06/16 06:22:13;;;;;;;10.88;5.75;;;17.20;99.90;;;;;;5034002;28;20037;-70
2022/06/16 06:24:41;;;;;;;12.48;7.68;;;17.10;99.90;;;;;;5034322;28;20047;-70
2022/06/16 06:27:21;;;;;;;15.93;7.15;;;17.50;99.90;;;;;;5034222;28;20518;-68
2022/06/16 06:29:48;;;;;;;8.68;5.03;;;17.30;99.90;;;;;;5033041;28;20041;-70
2022/06/16 06:32:16;;;;;;;11.40;6.25;;;17.70;99.90;;;;;;5033425;28;20070;-71
2022/06/16 06:34:42;;;;;;;9.50;4.60;;;18.90;99.90;;;;;;5027694;28;20041;-70
2022/06/16 06:37:09;;;;;;;10.18;5.80;;;18.00;99.90;;;;;;5014300;28;20068;-71
2022/06/16 06:39:35;;;;;;;6.88;3.90;;;18.10;99.90;;;;;;5016335;28;20038;-71
2022/06/16 06:42:03;;;;;;;7.35;3.65;;;18.00;99.90;;;;;;5018853;28;20407;-70
2022/06/16 06:44:29;;;;;;;5.32;3.40;;;17.80;99.90;;;;;;5048993;28;20502;-70
2022/06/16 06:46:55;;;;;;;9.43;4.15;;;17.70;99.90;;;;;;5033996;28;20471;-70
2022/06/16 06:49:21;;;;;;;8.63;3.60;;;17.60;99.90;;;;;;5013667;28;20045;-70
2022/06/16 06:51:47;;;;;;;9.05;3.13;;;17.70;99.90;;;;;;5014875;28;20053;-70
2022/06/16 06:54:12;;;;;;;7.13;2.88;;;17.70;99.90;;;;;;5015011;28;20491;-70
2022/06/16 06:56:38;;;;;;;5.15;2.78;;;17.60;99.90;;;;;;5037291;28;20124;-70
2022/06/16 06:59:09;;;;;;;3.03;2.30;;;17.70;99.90;;;;;;5033443;28;20045;-70
2022/06/16 07:01:35;;;;;;;5.47;2.78;;;17.50;99.90;;;;;;5016914;28;20033;-70
2022/06/16 07:04:02;;;;;;;7.90;3.17;;;17.70;99.90;;;;;;5033620;28;20037;-70
2022/06/16 07:06:28;;;;;;;3.78;2.85;;;17.60;99.90;;;;;;5032626;28;20465;-70
2022/06/16 07:08:54;;;;;;;4.03;2.65;;;17.70;99.90;;;;;;5034115;28;20519;-70
2022/06/16 07:11:20;;;;;;;8.77;2.58;;;17.50;99.90;;;;;;5033626;28;20076;-70
2022/06/16 07:13:45;;;;;;;3.42;2.15;;;17.30;99.90;;;;;;5051030;28;20067;-70
2022/06/16 07:16:11;;;;;;;7.05;2.00;;;17.40;99.90;;;;;;5033762;28;20075;-70
2022/06/16 07:18:37;;;;;;;5.20;2.38;;;17.50;99.90;;;;;;5051887;28;20025;-70
2022/06/16 07:21:04;;;;;;;4.72;1.88;;;18.90;99.90;;;;;;5051427;28;20083;-70
2022/06/16 07:23:29;;;;;;;4.15;1.95;;;18.60;99.90;;;;;;5051798;28;20032;-70
2022/06/16 07:25:55;;;;;;;2.75;1.63;;;17.50;99.90;;;;;;5051581;28;20100;-70
2022/06/16 07:28:21;;;;;;;3.03;1.25;;;17.90;99.90;;;;;;5051318;28;20086;-70
2022/06/16 07:30:47;;;;;;;4.47;1.50;;;17.90;99.90;;;;;;5053465;28;20049;-69
2022/06/16 07:33:13;;;;;;;3.38;1.60;;;17.70;99.90;;;;;;5037552;28;20083;-70
2022/06/16 07:35:41;;;;;;;3.17;1.75;;;18.00;99.90;;;;;;5055359;28;20163;-70
2022/06/16 07:38:08;;;;;;;5.18;1.65;;;17.80;99.90;;;;;;5055178;28;20037;-70
2022/06/16 07:40:34;;;;;;;3.22;1.10;;;17.70;99.90;;;;;;5055079;28;20048;-70
2022/06/16 07:42:59;;;;;;;5.70;1.60;;;17.80;99.90;;;;;;5036957;28;20047;-70
2022/06/16 07:45:27;;;;;;;2.80;1.50;;;18.00;99.90;;;;;;5036991;28;20126;-70
2022/06/16 07:47:54;;;;;;;2.75;1.35;;;18.00;99.90;;;;;;5055082;28;20037;-70
2022/06/16 07:50:20;;;;;;;4.20;1.50;;;17.70;99.90;;;;;;5037371;28;20122;-70
2022/06/16 07:52:45;;;;;;;4.35;1.30;;;17.90;99.90;;;;;;5036923;28;20037;-70
2022/06/16 07:55:12;;;;;;;3.30;1.88;;;17.80;99.90;;;;;;5037343;28;20087;-70
2022/06/16 07:57:44;;;;;;;3.70;1.58;;;18.20;99.90;;;;;;5054487;28;20047;-70
2022/06/16 08:00:13;;;;;;;4.35;2.00;;;18.10;99.90;;;;;;5037092;28;20547;-70
2022/06/16 08:02:39;;;;;;;5.68;2.47;;;18.40;99.90;;;;;;5036759;28;20041;-70
2022/06/16 08:05:06;;;;;;;3.92;2.08;;;18.10;99.90;;;;;;5054776;28;20098;-70
2022/06/16 08:07:32;;;;;;;6.78;2.20;;;18.20;99.90;;;;;;5054560;28;20049;-70
2022/06/16 08:09:58;;;;;;;5.85;1.98;;;18.40;99.90;;;;;;5054493;28;20032;-70
2022/06/16 08:12:24;;;;;;;7.30;2.35;;;18.10;99.90;;;;;;5036545;28;20118;-70
2022/06/16 08:14:50;;;;;;;4.50;1.70;;;18.10;99.90;;;;;;5036729;28;20120;-70
2022/06/16 08:17:24;;;;;;;5.63;2.47;;;18.10;99.90;;;;;;5036585;28;20160;-70
2022/06/16 08:19:50;;;;;;;6.97;2.45;;;18.30;99.90;;;;;;5054447;28;20037;-70
2022/06/16 08:22:16;;;;;;;5.30;2.22;;;18.30;99.90;;;;;;5054402;28;20127;-70
2022/06/16 08:24:42;;;;;;;5.07;1.95;;;18.40;99.90;;;;;;5054587;28;20071;-70
2022/06/16 08:27:09;;;;;;;4.85;2.22;;;18.70;99.90;;;;;;5036243;28;20087;-70
2022/06/16 08:29:36;;;;;;;2.88;2.10;;;18.30;99.90;;;;;;5036808;28;20473;-69
2022/06/16 08:32:02;;;;;;;5.63;2.00;;;18.40;99.90;;;;;;5035951;28;20055;-69
2022/06/16 08:34:28;;;;;;;4.43;2.00;;;18.80;99.90;;;;;;5054243;28;20119;-71
2022/06/16 08:36:53;;;;;;;4.57;1.70;;;18.40;99.90;;;;;;5054059;28;20040;-71
2022/06/16 08:39:19;;;;;;;4.82;2.25;;;18.80;99.90;;;;;;5054223;28;20076;-71
2022/06/16 08:41:53;;;;;;;4.70;2.30;;;18.50;99.90;;;;;;5052765;28;20065;-70
2022/06/16 08:44:28;;;;;;;7.10;3.00;;;18.80;99.90;;;;;;5054020;28;20103;-71
2022/06/16 08:47:04;;;;;;;6.50;2.80;;;18.70;99.90;;;;;;5035914;28;20041;-71
2022/06/16 08:49:51;;;;;;;8.77;2.70;;;18.90;99.90;;;;;;5053832;28;20505;-70
2022/06/16 08:52:29;;;;;;;8.75;3.10;;;18.90;99.90;;;;;;5036129;28;20490;-71
2022/06/16 08:55:08;;;;;;;4.63;2.90;;;18.90;99.90;;;;;;5036046;28;20068;-70
2022/06/16 08:57:51;;;;;;;5.55;2.53;;;18.90;99.90;;;;;;5053562;28;20033;-70
2022/06/16 09:00:21;;;;;;;5.20;2.72;;;19.30;99.90;;;;;;5035520;28;20503;-68
2022/06/16 09:03:07;;;;;;;6.32;2.72;;;19.10;99.90;;;;;;5053508;28;20075;-67
2022/06/16 09:05:49;;;;;;;8.35;2.53;;;19.10;99.90;;;;;;5035767;28;20079;-68
2022/06/16 09:08:35;;;;;;;4.75;2.60;;;19.20;99.90;;;;;;5053268;28;20519;-68
2022/06/16 09:11:13;;;;;;;8.35;2.28;;;19.60;99.90;;;;;;5035042;28;20063;-68
2022/06/16 09:13:58;;;;;;;5.15;2.55;;;19.20;99.90;;;;;;5035426;28;20368;-67
2022/06/16 09:16:33;;;;;;;6.88;2.40;;;19.40;99.90;;;;;;5041486;28;20037;-67
2022/06/16 09:19:04;;;;;;;4.38;2.40;;;19.30;99.90;;;;;;5053519;28;20049;-68
2022/06/16 09:21:38;;;;;;;5.00;1.90;;;19.60;99.90;;;;;;5035082;28;20045;-67
2022/06/16 09:24:19;;;;;;;12.52;2.75;;;19.60;99.90;;;;;;5053105;28;20391;-68
2022/06/16 09:27:14;;;;;;;4.53;2.35;;;19.70;99.90;;;;;;5052937;28;20499;-67
2022/06/16 09:30:04;;;;;;;4.82;2.83;;;19.90;99.90;;;;;;5050392;28;20052;-68
2022/06/16 09:32:54;;;;;;;6.18;2.30;;;19.90;99.90;;;;;;5051163;28;20047;-67
2022/06/16 09:35:28;;;;;;;5.68;2.60;;;20.00;99.90;;;;;;5035231;28;20048;-67
2022/06/16 09:38:16;;;;;;;5.25;2.35;;;20.20;99.90;;;;;;5039096;28;20052;-69
2022/06/16 09:40:54;;;;;;;6.57;2.67;;;20.40;99.90;;;;;;5036316;28;20037;-70
2022/06/16 09:43:39;;;;;;;3.85;2.15;;;20.30;99.90;;;;;;5051541;28;20079;-68
2022/06/16 09:46:23;;;;;;;4.60;2.30;;;20.40;99.90;;;;;;5048610;28;20032;-68
2022/06/16 09:49:04;;;;;;;5.57;2.58;;;20.40;99.90;;;;;;5034621;28;20055;-68
2022/06/16 09:51:34;;;;;;;4.18;2.40;;;20.60;99.90;;;;;;5038313;28;20037;-68
2022/06/16 09:54:12;;;;;;;4.82;2.80;;;20.60;99.90;;;;;;5033385;28;20037;-68
2022/06/16 09:56:57;;;;;;;7.63;2.30;;;20.40;99.90;;;;;;5030912;28;20048;-68
2022/06/16 09:59:32;;;;;;;4.05;2.15;;;20.70;99.90;;;;;;5049696;28;20048;-68
2022/06/16 10:02:05;;;;;;;7.38;2.40;;;20.70;99.90;;;;;;5032922;28;20049;-68
2022/06/16 10:04:31;;;;;;;5.28;3.10;;;20.90;99.90;;;;;;5033286;28;20043;-68
2022/06/16 10:07:21;;;;;;;5.20;2.90;;;20.60;99.90;;;;;;5051559;28;20049;-69
2022/06/16 10:10:18;;;;;;;8.20;2.42;;;20.90;99.90;;;;;;5034076;28;20045;-68
2022/06/16 10:13:00;;;;;;;5.47;2.47;;;20.90;99.90;;;;;;5052379;28;20029;-68
2022/06/16 10:15:47;;;;;;;7.43;2.35;;;21.10;99.90;;;;;;5046505;28;20035;-70
2022/06/16 10:18:13;;;;;;;6.97;2.00;;;21.10;99.90;;;;;;5033563;28;20037;-68
2022/06/16 10:20:40;;;;;;;4.40;2.65;;;22.70;99.90;;;;;;5049734;28;20083;-69
2022/06/16 10:23:27;;;;;;;5.25;2.63;;;21.20;99.90;;;;;;5039585;28;20037;-70
2022/06/16 10:26:00;;;;;;;4.28;2.08;;;22.60;99.90;;;;;;5041180;28;20040;-68
2022/06/16 10:28:38;;;;;;;8.80;3.03;;;21.40;99.90;;;;;;5042609;28;20439;-70
2022/06/16 10:31:06;;;;;;;5.85;3.00;;;21.20;99.90;;;;;;5044782;28;20044;-68
2022/06/16 10:33:51;;;;;;;5.15;2.70;;;21.50;99.90;;;;;;5014990;28;20057;-68
2022/06/16 10:36:22;;;;;;;5.50;2.55;;;21.60;99.90;;;;;;5032230;28;20052;-68
2022/06/16 10:39:16;;;;;;;5.15;2.25;;;21.40;99.90;;;;;;5032516;28;20041;-73
2022/06/16 10:41:58;;;;;;;4.97;1.92;;;21.60;99.90;;;;;;5017996;28;20037;-69
2022/06/16 10:44:27;;;;;;;5.70;1.73;;;21.30;99.90;;;;;;5033592;28;20119;-69
2022/06/16 10:46:57;;;;;;;2.97;1.60;;;21.70;99.90;;;;;;5050867;28;20043;-69
2022/06/16 10:49:34;;;;;;;5.63;2.13;;;21.50;99.90;;;;;;5034074;28;20048;-72
2022/06/16 10:52:07;;;;;;;5.13;2.33;;;21.50;99.90;;;;;;5034056;28;20045;-72
2022/06/16 10:54:35;;;;;;;3.45;1.90;;;21.60;99.90;;;;;;5033998;28;20087;-72
2022/06/16 10:57:19;;;;;;;3.47;1.90;;;22.80;99.90;;;;;;5017362;28;20049;-72
2022/06/16 11:00:06;;;;;;;7.47;2.28;;;21.60;99.90;;;;;;5033042;28;20069;-69
2022/06/16 11:02:35;;;;;;;7.15;2.70;;;21.70;99.90;;;;;;5051993;28;20045;-69
2022/06/16 11:05:08;;;;;;;8.15;2.72;;;21.70;99.90;;;;;;5034683;28;20399;-68
2022/06/16 11:07:42;;;;;;;6.35;2.45;;;21.80;99.90;;;;;;5037424;28;20057;-69
2022/06/16 11:10:16;;;;;;;7.00;2.30;;;21.80;99.90;;;;;;5052792;28;20032;-68
2022/06/16 11:12:47;;;;;;;4.77;2.17;;;21.90;99.90;;;;;;5055166;28;20268;-69
2022/06/16 11:15:33;;;;;;;4.70;2.63;;;22.20;99.90;;;;;;5055495;28;20414;-69
2022/06/16 11:18:01;;;;;;;5.05;2.72;;;22.00;99.90;;;;;;5037325;28;20048;-68
2022/06/16 11:20:40;;;;;;;6.40;1.90;;;22.00;99.90;;;;;;5052618;28;20091;-68
2022/06/16 11:23:33;;;;;;;4.78;2.45;;;22.00;99.90;;;;;;5055009;28;20037;-68
2022/06/16 11:26:28;;;;;;;3.42;2.08;;;22.00;99.90;;;;;;5025363;28;20102;-68
2022/06/16 11:29:21;;;;;;;7.90;2.92;;;22.50;99.90;;;;;;5024397;28;20466;-68
2022/06/16 11:31:51;;;;;;;5.03;2.88;;;22.10;99.90;;;;;;5037081;28;20044;-68
2022/06/16 11:34:27;;;;;;;5.75;2.72;;;22.20;99.90;;;;;;5054858;28;20115;-68
2022/06/16 11:37:08;;;;;;;5.68;2.17;;;22.40;99.90;;;;;;5036993;28;20091;-68
2022/06/16 11:40:04;;;;;;;5.53;2.40;;;22.30;99.90;;;;;;5040966;28;20041;-68
2022/06/16 11:42:54;;;;;;;5.15;3.03;;;22.30;99.90;;;;;;5054508;28;20553;-69
2022/06/16 11:45:47;;;;;;;10.50;3.80;;;22.60;99.90;;;;;;5054975;28;20045;-69
2022/06/16 11:48:49;;;;;;;5.78;2.22;;;22.40;99.90;;;;;;5053008;28;20040;-68
2022/06/16 11:51:33;;;;;;;6.35;2.80;;;22.60;99.90;;;;;;5036690;28;20053;-69
2022/06/16 11:54:26;;;;;;;6.43;2.95;;;22.50;99.90;;;;;;5036598;28;20399;-69
2022/06/16 11:57:18;;;;;;;4.15;1.80;;;22.50;99.90;;;;;;5033532;28;20479;-68
2022/06/16 12:00:10;;;;;;;6.38;2.75;;;22.10;99.90;;;;;;5031131;28;20113;-69
2022/06/16 12:03:01;;;;;;;4.68;2.53;;;22.20;99.90;;;;;;5036362;28;20123;-68
2022/06/16 12:05:45;;;;;;;7.97;3.75;;;22.50;99.90;;;;;;5033752;28;20041;-68
2022/06/16 12:08:38;;;;;;;5.00;2.85;;;22.50;99.90;;;;;;5036387;28;20060;-69
2022/06/16 12:11:19;;;;;;;6.85;2.45;;;22.50;99.90;;;;;;5035933;28;20045;-69
2022/06/16 12:14:23;;;;;;;5.07;2.50;;;22.30;99.90;;;;;;5036225;28;20499;-68
2022/06/16 12:17:04;;;;;;;5.10;2.38;;;21.90;99.90;;;;;;5036068;28;20044;-69
2022/06/16 12:20:08;;;;;;;5.93;3.00;;;22.20;99.90;;;;;;5036209;28;20398;-69
2022/06/16 12:22:49;;;;;;;5.90;2.47;;;22.40;99.90;;;;;;5034431;28;20048;-68
2022/06/16 12:25:45;;;;;;;4.55;2.60;;;22.40;99.90;;;;;;5032919;28;20410;-68
2022/06/16 12:28:22;;;;;;;5.68;2.58;;;22.30;99.90;;;;;;5036487;28;20558;-68
2022/06/16 12:31:06;;;;;;;6.72;2.85;;;22.30;99.90;;;;;;5032826;28;20123;-68
2022/06/16 12:34:07;;;;;;;5.07;2.55;;;22.50;99.90;;;;;;5050389;28;20524;-68
2022/06/16 12:36:40;;;;;;;5.65;2.00;;;22.70;99.90;;;;;;5050020;28;20036;-68
2022/06/16 12:39:29;;;;;;;10.65;3.05;;;22.90;99.90;;;;;;5050487;28;20045;-69
2022/06/16 12:42:01;;;;;;;7.05;2.42;;;23.20;99.90;;;;;;5053400;28;20095;-68
2022/06/16 12:44:40;;;;;;;6.75;2.40;;;22.80;99.90;;;;;;5053586;28;20041;-68
2022/06/16 12:47:17;;;;;;;3.92;2.03;;;23.30;99.90;;;;;;5032628;28;20151;-68
2022/06/16 12:50:02;;;;;;;4.35;1.98;;;23.10;99.90;;;;;;5053775;28;20037;-68
2022/06/16 12:52:39;;;;;;;3.15;1.58;;;23.20;99.90;;;;;;5053234;28;20033;-68
2022/06/16 12:55:26;;;;;;;3.83;2.00;;;23.40;99.90;;;;;;5035921;28;20135;-68
2022/06/16 12:58:18;;;;;;;6.18;1.73;;;23.20;99.90;;;;;;5027610;28;20076;-68
2022/06/16 13:00:51;;;;;;;3.40;1.90;;;23.30;99.90;;;;;;5042368;28;20430;-66
2022/06/16 13:03:20;;;;;;;5.90;2.08;;;23.20;99.90;;;;;;5041516;28;20087;-67
2022/06/16 13:05:46;;;;;;;7.07;2.15;;;23.60;99.90;;;;;;5049019;28;20143;-68
2022/06/16 13:08:14;;;;;;;3.88;1.98;;;23.40;99.90;;;;;;5024445;28;20166;-68
2022/06/16 13:10:43;;;;;;;3.95;2.05;;;23.60;99.90;;;;;;5047353;28;20560;-67
2022/06/16 13:13:10;;;;;;;3.53;1.92;;;23.40;99.90;;;;;;5020179;28;20423;-67
2022/06/16 13:15:42;;;;;;;3.67;2.10;;;23.00;99.90;;;;;;5038319;28;20081;-68
2022/06/16 13:18:24;;;;;;;5.13;2.38;;;23.00;99.90;;;;;;5033017;28;20503;-68
2022/06/16 13:20:58;;;;;;;4.72;2.17;;;23.00;99.90;;;;;;5015023;28;20045;-67
2022/06/16 13:23:39;;;;;;;7.85;2.40;;;23.10;99.90;;;;;;5044670;28;20037;-65
2022/06/16 13:26:26;;;;;;;7.50;2.33;;;22.80;99.90;;;;;;5044306;28;20048;-67
2022/06/16 13:29:18;;;;;;;4.97;2.10;;;22.80;99.90;;;;;;5043322;28;20049;-69
2022/06/16 13:31:46;;;;;;;7.70;2.28;;;22.70;99.90;;;;;;5019189;28;20510;-67
2022/06/16 13:34:17;;;;;;;3.90;1.80;;;22.60;99.90;;;;;;5025742;28;20090;-69
2022/06/16 13:36:45;;;;;;;5.28;1.33;;;22.60;99.90;;;;;;5025393;28;20123;-68
2022/06/16 13:39:50;;;;;;;3.38;1.60;;;22.80;99.90;;;;;;5044429;28;20451;-69
2022/06/16 13:42:52;;;;;;;5.00;2.67;;;22.30;99.90;;;;;;5025855;28;20053;-67